Relevés horaires Matro (Suisse)


Relevés horaires à Matro - Lundi 10 Nov. 2014
Heure UTC1 Température [°C] Vent [km/h] Hum. [%] Pres.4 [hPa] Visi. [Km] Nébu. [octa] Préc.5 [mm] Cond.
2m. Res. Ros. Dir.2 Vit. Moy. Raf.3
23:00 1.9 -5.6 1.9 SE 50.0 51.9 63.0 100 850(-0.1/3h) -- -- -- --
22:00 1.9 -5.3 1.9 SSE 46.3 48.2 57.4 100 850(0.5/3h) -- -- -- --
21:00 1.6 -5.6 1.6 SSE 44.4 44.4 55.6 100 850(0.3/3h) -- -- -- --
20:00 1.5 -5 0.9 SSE 35.2 35.2 48.2 96 850(0.6/3h) -- -- -- --
19:00 1.3 -5.1 1.3 SE 33.3 38.9 46.3 100 850(0.4/3h) -- -- -- --
18:00 1.5 -5 0.7 SSE 35.2 42.6 46.3 94 850(0.4/3h) -- -- -- --
17:00 0.8 -6.2 0.6 SSE 38.9 38.9 46.3 99 850(0.1/3h) -- -- -- --
16:00 0.3 -6.9 0.3 SE 38.9 42.6 46.3 100 850(0.0/3h) -- -- -- --
15:00 -0.3 -5.9 -0.3 SSE 22.2 35.2 44.4 100 850(0.0/3h) -- -- -- --
14:00 0.0 -5.8 -0.3 S 24.1 31.5 38.9 98 850(-0.3/3h) -- -- -- --
13:00 -0.1 -6.9 -0.1 S 33.3 35.2 44.4 100 850(-0.1/3h) -- -- -- --
12:00 -0.3 -5.9 -0.5 SSE 22.2 50.0 63.0 99 850(0.2/3h) -- -- -- --
11:00 0.4 -6.3 0.4 S 33.3 38.9 51.9 100 850(0.2/3h) -- -- -- --
10:00 1.1 -5.8 0.9 S 38.9 38.9 51.9 99 850(0.2/3h) -- -- -- --
09:00 1.3 -5.4 1.2 SSE 37.0 50.0 63.0 99 850(0.1/3h) -- -- -- --
08:00 0.6 -6.9 0.6 SSE 44.4 50.0 63.0 100 850(0.4/3h) -- -- -- --
07:00 1.5 -5.7 1.5 SE 44.4 46.3 57.4 100 850(0.2/3h) -- -- -- --
06:00 1.2 -6 1.2 SE 42.6 48.2 59.3 100 850(0.0/3h) -- -- -- --
05:00 0.9 -5.9 0.9 SE 37.0 38.9 51.9 100 850(-0.1/3h) -- -- -- --
04:00 0.8 -6.2 0.7 SE 38.9 38.9 53.7 99 850(-0.1/3h) -- -- -- --
03:00 0.4 -6.5 0.4 SSE 35.2 48.2 55.6 100 850(0.0/3h) -- -- -- --
02:00 -0.2 -7.2 -0.2 SSE 35.2 40.7 53.7 100 850(0.2/3h) -- -- -- --
01:00 0.0 -7.5 -- SSE 40.7 48.2 55.6 -- 850(0.1/3h) -- -- -- --
00:00 -0.3 -8.4 -0.3 SSE 48.2 55.6 66.7 100 850(0.1/3h) -- -- -- --

1 Coordinated Universal Time. Actuellement il est 06:00 locale et 04:00 UTC.

2 Le vent souffle depuis la direction indiquée vers la direction oposée.

3 Les rafales max. sont disponible 40 min après l'heure du relevé.

4 Pour les stations d'altitude (plus de 600m) le géopotentiel du niveau le plus proche de la pression obligatoire est indiqué.

5 Les stations disposant d'un diffuseur peuvent indiquer "trace". Cela signifie que des précipitations ont touchés le sol mais que la quantité est inférieure à 0.1 mm.

Copyright

Les données affichées sur cette page sont la propriété exclusive de Météo Suisse.

Récapitulatif de la journée
Température [°C] Vent [km/h] Ensoleillement4 [h] Precipitations totale5 [mm] Pression [Hpa]
Min1 Max.2 Moy.3 Max. Min Max.
-0.4 1.8 43.2 66.7 0 h 0 min 0 850.0 850.0

1 Température minimale relevée entre 18:00 UTC la veille et 18:00 UTC le jour donné.

2 Température maximale relevée entre 06:00 UTC le jour donné et 06:00 UTC le lendemain.

3 Vent moyen de la journée basé sur les relevés horaires.

4 Ensoleillement en heures relevé entre 06:00 UTC la veille et 06:00 UTC le jour donné.

5 Précipitations totales tombées entre 06:00 UTC la jour donné et 06:00 UTC le lendemain.

Graphiques horaires